sensor_id;sensor_type;location;lat;lon;timestamp;pressure;altitude;pressure_sealevel;temperature;humidity
20013;BME280;10167;42.852;23.042;2023-02-14T00:01:59;96286.19;;;1.22;100.00
20013;BME280;10167;42.852;23.042;2023-02-14T00:04:28;96267.34;;;1.28;100.00
20013;BME280;10167;42.852;23.042;2023-02-14T00:06:58;96285.03;;;1.34;100.00
20013;BME280;10167;42.852;23.042;2023-02-14T00:09:27;96274.28;;;1.37;100.00
20013;BME280;10167;42.852;23.042;2023-02-14T00:11:55;96270.56;;;1.39;100.00
20013;BME280;10167;42.852;23.042;2023-02-14T00:14:24;96263.97;;;1.45;100.00
20013;BME280;10167;42.852;23.042;2023-02-14T00:17:10;96271.72;;;1.55;100.00
20013;BME280;10167;42.852;23.042;2023-02-14T00:19:39;96272.63;;;1.63;100.00
20013;BME280;10167;42.852;23.042;2023-02-14T00:22:09;96272.84;;;1.70;100.00
20013;BME280;10167;42.852;23.042;2023-02-14T00:24:38;96264.00;;;1.80;100.00
20013;BME280;10167;42.852;23.042;2023-02-14T00:27:07;96259.19;;;1.94;100.00
20013;BME280;10167;42.852;23.042;2023-02-14T00:29:35;96266.31;;;2.01;100.00
20013;BME280;10167;42.852;23.042;2023-02-14T00:32:04;96261.56;;;2.05;100.00
20013;BME280;10167;42.852;23.042;2023-02-14T00:34:33;96262.53;;;2.04;100.00
20013;BME280;10167;42.852;23.042;2023-02-14T00:37:02;96255.75;;;2.11;100.00
20013;BME280;10167;42.852;23.042;2023-02-14T00:39:34;96254.06;;;2.02;100.00
20013;BME280;10167;42.852;23.042;2023-02-14T00:42:05;96259.94;;;2.04;100.00
20013;BME280;10167;42.852;23.042;2023-02-14T00:44:33;96253.59;;;2.06;100.00
20013;BME280;10167;42.852;23.042;2023-02-14T00:47:02;96258.75;;;1.98;100.00
20013;BME280;10167;42.852;23.042;2023-02-14T00:49:31;96240.25;;;2.09;100.00
20013;BME280;10167;42.852;23.042;2023-02-14T00:52:00;96236.34;;;2.13;100.00
20013;BME280;10167;42.852;23.042;2023-02-14T00:54:29;96248.94;;;2.18;100.00
20013;BME280;10167;42.852;23.042;2023-02-14T00:57:00;96251.13;;;2.23;100.00
20013;BME280;10167;42.852;23.042;2023-02-14T00:59:28;96241.78;;;2.20;100.00
20013;BME280;10167;42.852;23.042;2023-02-14T01:01:57;96245.38;;;2.19;100.00
20013;BME280;10167;42.852;23.042;2023-02-14T01:04:28;96237.91;;;2.06;100.00
20013;BME280;10167;42.852;23.042;2023-02-14T01:06:57;96232.19;;;2.03;100.00
20013;BME280;10167;42.852;23.042;2023-02-14T01:09:25;96227.56;;;1.97;100.00
20013;BME280;10167;42.852;23.042;2023-02-14T01:11:54;96228.09;;;1.82;100.00
20013;BME280;10167;42.852;23.042;2023-02-14T01:14:24;96231.97;;;1.78;100.00
20013;BME280;10167;42.852;23.042;2023-02-14T01:16:53;96229.38;;;1.78;100.00
20013;BME280;10167;42.852;23.042;2023-02-14T01:19:23;96219.44;;;1.82;100.00
20013;BME280;10167;42.852;23.042;2023-02-14T01:21:52;96228.38;;;1.97;100.00
20013;BME280;10167;42.852;23.042;2023-02-14T01:24:21;96232.25;;;1.93;100.00
20013;BME280;10167;42.852;23.042;2023-02-14T01:26:52;96229.34;;;2.14;100.00
20013;BME280;10167;42.852;23.042;2023-02-14T01:29:21;96236.41;;;2.22;100.00
20013;BME280;10167;42.852;23.042;2023-02-14T01:31:52;96233.94;;;2.20;100.00
20013;BME280;10167;42.852;23.042;2023-02-14T01:34:24;96235.63;;;2.29;100.00
20013;BME280;10167;42.852;23.042;2023-02-14T01:36:53;96233.56;;;2.33;100.00
20013;BME280;10167;42.852;23.042;2023-02-14T01:39:22;96218.06;;;2.39;100.00
20013;BME280;10167;42.852;23.042;2023-02-14T01:41:52;96229.22;;;2.49;100.00
20013;BME280;10167;42.852;23.042;2023-02-14T01:47:10;96221.94;;;2.61;100.00
20013;BME280;10167;42.852;23.042;2023-02-14T01:49:40;96223.44;;;2.64;100.00
20013;BME280;10167;42.852;23.042;2023-02-14T01:52:11;96229.50;;;2.64;100.00
20013;BME280;10167;42.852;23.042;2023-02-14T01:54:44;96218.25;;;2.72;100.00
20013;BME280;10167;42.852;23.042;2023-02-14T01:57:15;96212.69;;;2.67;100.00
20013;BME280;10167;42.852;23.042;2023-02-14T01:59:47;96220.03;;;2.71;100.00
20013;BME280;10167;42.852;23.042;2023-02-14T02:02:20;96212.00;;;2.65;100.00
20013;BME280;10167;42.852;23.042;2023-02-14T02:04:51;96214.16;;;2.69;100.00
20013;BME280;10167;42.852;23.042;2023-02-14T02:07:27;96212.94;;;2.55;100.00
20013;BME280;10167;42.852;23.042;2023-02-14T02:09:58;96189.72;;;2.52;100.00
20013;BME280;10167;42.852;23.042;2023-02-14T02:12:29;96206.78;;;2.65;100.00
20013;BME280;10167;42.852;23.042;2023-02-14T02:14:57;96192.06;;;2.64;100.00
20013;BME280;10167;42.852;23.042;2023-02-14T02:17:31;96189.75;;;2.61;100.00
20013;BME280;10167;42.852;23.042;2023-02-14T02:25:56;96180.66;;;2.39;100.00
20013;BME280;10167;42.852;23.042;2023-02-14T02:28:39;96178.91;;;2.47;100.00
20013;BME280;10167;42.852;23.042;2023-02-14T02:31:31;96166.19;;;2.52;100.00
20013;BME280;10167;42.852;23.042;2023-02-14T02:37:16;96148.44;;;2.38;100.00
20013;BME280;10167;42.852;23.042;2023-02-14T02:39:58;96155.59;;;2.28;100.00
20013;BME280;10167;42.852;23.042;2023-02-14T02:42:32;96152.81;;;2.30;100.00
20013;BME280;10167;42.852;23.042;2023-02-14T02:45:05;96164.59;;;2.26;100.00
20013;BME280;10167;42.852;23.042;2023-02-14T02:47:40;96174.13;;;2.17;100.00
20013;BME280;10167;42.852;23.042;2023-02-14T02:50:19;96176.81;;;2.25;100.00
20013;BME280;10167;42.852;23.042;2023-02-14T02:53:10;96182.22;;;2.24;100.00
20013;BME280;10167;42.852;23.042;2023-02-14T02:55:42;96162.59;;;2.28;100.00
20013;BME280;10167;42.852;23.042;2023-02-14T02:58:32;96172.25;;;2.27;100.00
20013;BME280;10167;42.852;23.042;2023-02-14T03:01:05;96175.06;;;2.34;100.00
20013;BME280;10167;42.852;23.042;2023-02-14T03:03:34;96167.13;;;2.17;100.00
20013;BME280;10167;42.852;23.042;2023-02-14T03:06:21;96164.31;;;2.37;100.00
20013;BME280;10167;42.852;23.042;2023-02-14T03:08:51;96159.53;;;2.32;100.00
20013;BME280;10167;42.852;23.042;2023-02-14T03:11:20;96154.13;;;2.26;100.00
20013;BME280;10167;42.852;23.042;2023-02-14T03:13:53;96161.34;;;2.32;100.00
20013;BME280;10167;42.852;23.042;2023-02-14T03:16:28;96151.06;;;2.38;100.00
20013;BME280;10167;42.852;23.042;2023-02-14T03:19:06;96146.50;;;2.40;100.00
20013;BME280;10167;42.852;23.042;2023-02-14T03:21:40;96129.84;;;2.41;100.00
20013;BME280;10167;42.852;23.042;2023-02-14T03:24:12;96126.94;;;2.44;100.00
20013;BME280;10167;42.852;23.042;2023-02-14T03:26:47;96135.38;;;2.38;100.00
20013;BME280;10167;42.852;23.042;2023-02-14T03:29:18;96126.94;;;2.18;100.00
20013;BME280;10167;42.852;23.042;2023-02-14T03:31:52;96129.03;;;2.15;100.00
20013;BME280;10167;42.852;23.042;2023-02-14T03:34:26;96142.66;;;2.27;100.00
20013;BME280;10167;42.852;23.042;2023-02-14T03:36:58;96150.06;;;2.31;100.00
20013;BME280;10167;42.852;23.042;2023-02-14T03:39:31;96139.59;;;2.31;100.00
20013;BME280;10167;42.852;23.042;2023-02-14T03:42:07;96142.19;;;2.23;100.00
20013;BME280;10167;42.852;23.042;2023-02-14T03:44:38;96137.16;;;2.30;100.00
20013;BME280;10167;42.852;23.042;2023-02-14T03:47:09;96132.22;;;2.27;100.00
20013;BME280;10167;42.852;23.042;2023-02-14T03:49:39;96131.75;;;2.31;100.00
20013;BME280;10167;42.852;23.042;2023-02-14T03:52:10;96129.19;;;2.39;100.00
20013;BME280;10167;42.852;23.042;2023-02-14T03:54:41;96115.94;;;2.33;100.00
20013;BME280;10167;42.852;23.042;2023-02-14T03:57:13;96116.75;;;2.33;100.00
20013;BME280;10167;42.852;23.042;2023-02-14T03:59:43;96121.94;;;2.25;100.00
20013;BME280;10167;42.852;23.042;2023-02-14T04:02:13;96128.59;;;2.19;100.00
20013;BME280;10167;42.852;23.042;2023-02-14T04:04:44;96122.53;;;2.19;100.00
20013;BME280;10167;42.852;23.042;2023-02-14T04:07:14;96124.84;;;2.22;100.00
20013;BME280;10167;42.852;23.042;2023-02-14T04:09:44;96125.72;;;2.31;100.00
20013;BME280;10167;42.852;23.042;2023-02-14T04:12:13;96125.19;;;2.27;100.00
20013;BME280;10167;42.852;23.042;2023-02-14T04:14:45;96120.31;;;2.24;100.00
20013;BME280;10167;42.852;23.042;2023-02-14T04:17:14;96118.50;;;2.25;100.00
20013;BME280;10167;42.852;23.042;2023-02-14T04:20:00;96116.09;;;2.31;100.00
20013;BME280;10167;42.852;23.042;2023-02-14T04:22:29;96112.50;;;2.32;100.00
20013;BME280;10167;42.852;23.042;2023-02-14T04:24:59;96103.03;;;2.39;100.00
20013;BME280;10167;42.852;23.042;2023-02-14T04:27:28;96109.69;;;2.26;100.00
20013;BME280;10167;42.852;23.042;2023-02-14T04:29:58;96108.25;;;2.31;100.00
20013;BME280;10167;42.852;23.042;2023-02-14T04:32:26;96098.25;;;2.27;100.00
20013;BME280;10167;42.852;23.042;2023-02-14T04:34:55;96105.59;;;2.23;100.00
20013;BME280;10167;42.852;23.042;2023-02-14T04:37:24;96093.81;;;2.19;100.00
20013;BME280;10167;42.852;23.042;2023-02-14T04:39:54;96088.28;;;2.22;100.00
20013;BME280;10167;42.852;23.042;2023-02-14T04:42:24;96076.84;;;2.23;100.00
20013;BME280;10167;42.852;23.042;2023-02-14T04:44:53;96079.78;;;2.28;100.00
20013;BME280;10167;42.852;23.042;2023-02-14T04:47:22;96082.75;;;2.25;100.00
20013;BME280;10167;42.852;23.042;2023-02-14T04:49:50;96073.75;;;2.28;100.00
20013;BME280;10167;42.852;23.042;2023-02-14T04:52:20;96072.28;;;2.25;100.00
20013;BME280;10167;42.852;23.042;2023-02-14T04:54:49;96085.00;;;2.20;100.00
20013;BME280;10167;42.852;23.042;2023-02-14T04:57:17;96085.97;;;2.19;100.00
20013;BME280;10167;42.852;23.042;2023-02-14T04:59:48;96091.72;;;2.23;100.00
20013;BME280;10167;42.852;23.042;2023-02-14T05:02:16;96086.78;;;2.19;100.00
20013;BME280;10167;42.852;23.042;2023-02-14T05:04:45;96080.75;;;2.19;100.00
20013;BME280;10167;42.852;23.042;2023-02-14T05:07:15;96093.84;;;2.27;100.00
20013;BME280;10167;42.852;23.042;2023-02-14T05:09:44;96078.66;;;2.31;100.00
20013;BME280;10167;42.852;23.042;2023-02-14T05:12:13;96074.09;;;2.25;100.00
20013;BME280;10167;42.852;23.042;2023-02-14T05:14:42;96082.13;;;2.39;100.00
20013;BME280;10167;42.852;23.042;2023-02-14T05:17:12;96095.00;;;2.25;100.00
20013;BME280;10167;42.852;23.042;2023-02-14T05:19:41;96093.53;;;2.30;100.00
20013;BME280;10167;42.852;23.042;2023-02-14T05:22:10;96099.41;;;2.24;100.00
20013;BME280;10167;42.852;23.042;2023-02-14T05:24:38;96093.34;;;2.24;100.00
20013;BME280;10167;42.852;23.042;2023-02-14T05:27:07;96088.78;;;2.26;100.00
20013;BME280;10167;42.852;23.042;2023-02-14T05:29:37;96080.81;;;2.35;100.00
20013;BME280;10167;42.852;23.042;2023-02-14T05:32:07;96087.69;;;2.36;100.00
20013;BME280;10167;42.852;23.042;2023-02-14T05:34:37;96084.56;;;2.33;100.00
20013;BME280;10167;42.852;23.042;2023-02-14T05:37:05;96085.63;;;2.48;100.00
20013;BME280;10167;42.852;23.042;2023-02-14T05:39:36;96090.19;;;2.46;100.00
20013;BME280;10167;42.852;23.042;2023-02-14T05:42:04;96081.94;;;2.33;100.00
20013;BME280;10167;42.852;23.042;2023-02-14T05:44:33;96078.81;;;2.29;100.00
20013;BME280;10167;42.852;23.042;2023-02-14T05:47:02;96080.47;;;2.30;100.00
20013;BME280;10167;42.852;23.042;2023-02-14T05:49:31;96083.75;;;2.32;100.00
20013;BME280;10167;42.852;23.042;2023-02-14T05:52:02;96075.75;;;2.34;100.00
20013;BME280;10167;42.852;23.042;2023-02-14T05:54:30;96081.81;;;2.42;100.00
20013;BME280;10167;42.852;23.042;2023-02-14T05:56:59;96074.78;;;2.35;100.00
20013;BME280;10167;42.852;23.042;2023-02-14T05:59:28;96079.66;;;2.38;100.00
20013;BME280;10167;42.852;23.042;2023-02-14T06:01:57;96070.38;;;2.35;100.00
20013;BME280;10167;42.852;23.042;2023-02-14T06:04:26;96078.78;;;2.55;100.00
20013;BME280;10167;42.852;23.042;2023-02-14T06:06:54;96076.81;;;2.57;100.00
20013;BME280;10167;42.852;23.042;2023-02-14T06:09:24;96082.13;;;2.81;100.00
20013;BME280;10167;42.852;23.042;2023-02-14T06:11:54;96087.84;;;2.85;100.00
20013;BME280;10167;42.852;23.042;2023-02-14T06:14:22;96093.59;;;2.88;100.00
20013;BME280;10167;42.852;23.042;2023-02-14T06:16:51;96097.53;;;2.92;100.00
20013;BME280;10167;42.852;23.042;2023-02-14T06:19:20;96092.63;;;2.98;100.00
20013;BME280;10167;42.852;23.042;2023-02-14T06:21:50;96102.13;;;3.07;100.00
20013;BME280;10167;42.852;23.042;2023-02-14T06:24:19;96106.06;;;3.19;100.00
20013;BME280;10167;42.852;23.042;2023-02-14T06:26:49;96100.84;;;3.19;100.00
20013;BME280;10167;42.852;23.042;2023-02-14T06:29:18;96102.31;;;3.29;100.00
20013;BME280;10167;42.852;23.042;2023-02-14T06:31:47;96107.91;;;3.26;100.00
20013;BME280;10167;42.852;23.042;2023-02-14T06:34:15;96110.84;;;3.23;100.00
20013;BME280;10167;42.852;23.042;2023-02-14T06:36:45;96107.56;;;3.21;100.00
20013;BME280;10167;42.852;23.042;2023-02-14T06:39:14;96111.00;;;3.22;100.00
20013;BME280;10167;42.852;23.042;2023-02-14T06:41:43;96110.84;;;3.23;100.00
20013;BME280;10167;42.852;23.042;2023-02-14T06:44:14;96106.38;;;3.08;100.00
20013;BME280;10167;42.852;23.042;2023-02-14T06:46:43;96110.63;;;3.17;100.00
20013;BME280;10167;42.852;23.042;2023-02-14T06:49:12;96108.06;;;3.25;100.00
20013;BME280;10167;42.852;23.042;2023-02-14T06:51:41;96103.59;;;3.17;100.00
20013;BME280;10167;42.852;23.042;2023-02-14T06:54:09;96105.91;;;3.20;100.00
20013;BME280;10167;42.852;23.042;2023-02-14T06:56:38;96102.66;;;3.26;100.00
20013;BME280;10167;42.852;23.042;2023-02-14T06:59:07;96108.72;;;3.27;100.00
20013;BME280;10167;42.852;23.042;2023-02-14T07:01:37;96104.94;;;3.29;100.00
20013;BME280;10167;42.852;23.042;2023-02-14T07:04:06;96104.63;;;3.24;100.00
20013;BME280;10167;42.852;23.042;2023-02-14T07:06:35;96102.47;;;3.28;100.00
20013;BME280;10167;42.852;23.042;2023-02-14T07:09:04;96098.91;;;3.37;100.00
20013;BME280;10167;42.852;23.042;2023-02-14T07:11:34;96096.91;;;3.15;100.00
20013;BME280;10167;42.852;23.042;2023-02-14T07:14:04;96105.75;;;3.30;100.00
20013;BME280;10167;42.852;23.042;2023-02-14T07:16:33;96102.81;;;3.33;100.00
20013;BME280;10167;42.852;23.042;2023-02-14T07:19:04;96098.41;;;3.42;100.00
20013;BME280;10167;42.852;23.042;2023-02-14T07:21:33;96100.53;;;3.46;100.00
20013;BME280;10167;42.852;23.042;2023-02-14T07:24:02;96111.00;;;3.30;100.00
20013;BME280;10167;42.852;23.042;2023-02-14T07:26:31;96110.19;;;3.38;100.00
20013;BME280;10167;42.852;23.042;2023-02-14T07:28:59;96114.28;;;3.40;100.00
20013;BME280;10167;42.852;23.042;2023-02-14T07:31:28;96106.22;;;3.09;100.00
20013;BME280;10167;42.852;23.042;2023-02-14T07:33:57;96101.50;;;3.21;100.00
20013;BME280;10167;42.852;23.042;2023-02-14T07:36:28;96108.53;;;3.20;100.00
20013;BME280;10167;42.852;23.042;2023-02-14T07:38:57;96106.06;;;3.19;100.00
20013;BME280;10167;42.852;23.042;2023-02-14T07:41:25;96122.06;;;3.08;100.00
20013;BME280;10167;42.852;23.042;2023-02-14T07:43:54;96106.41;;;3.16;100.00
20013;BME280;10167;42.852;23.042;2023-02-14T07:46:28;96113.44;;;3.23;100.00
20013;BME280;10167;42.852;23.042;2023-02-14T07:48:56;96116.06;;;3.15;100.00
20013;BME280;10167;42.852;23.042;2023-02-14T07:51:27;96112.63;;;3.15;100.00
20013;BME280;10167;42.852;23.042;2023-02-14T07:53:56;96111.59;;;3.00;100.00
20013;BME280;10167;42.852;23.042;2023-02-14T07:56:25;96110.78;;;3.07;100.00
20013;BME280;10167;42.852;23.042;2023-02-14T07:58:53;96114.72;;;3.11;100.00
20013;BME280;10167;42.852;23.042;2023-02-14T08:01:22;96108.53;;;3.20;100.00
20013;BME280;10167;42.852;23.042;2023-02-14T08:03:51;96116.69;;;3.17;100.00
20013;BME280;10167;42.852;23.042;2023-02-14T08:06:20;96118.97;;;3.04;100.00
20013;BME280;10167;42.852;23.042;2023-02-14T08:08:50;96127.31;;;3.08;100.00
20013;BME280;10167;42.852;23.042;2023-02-14T08:11:19;96133.69;;;3.05;100.00
20013;BME280;10167;42.852;23.042;2023-02-14T08:14:02;96126.34;;;3.09;100.00
20013;BME280;10167;42.852;23.042;2023-02-14T08:16:30;96132.88;;;3.05;100.00
20013;BME280;10167;42.852;23.042;2023-02-14T08:19:00;96128.63;;;3.12;100.00
20013;BME280;10167;42.852;23.042;2023-02-14T08:21:29;96137.63;;;3.01;100.00
20013;BME280;10167;42.852;23.042;2023-02-14T08:24:00;96137.09;;;2.89;100.00
20013;BME280;10167;42.852;23.042;2023-02-14T08:26:30;96136.28;;;2.97;100.00
20013;BME280;10167;42.852;23.042;2023-02-14T08:29:00;96136.94;;;2.91;100.00
20013;BME280;10167;42.852;23.042;2023-02-14T08:31:30;96148.06;;;3.01;100.00
20013;BME280;10167;42.852;23.042;2023-02-14T08:34:02;96138.75;;;2.99;100.00
20013;BME280;10167;42.852;23.042;2023-02-14T08:36:32;96140.84;;;2.95;100.00
20013;BME280;10167;42.852;23.042;2023-02-14T08:39:03;96129.94;;;3.08;100.00
20013;BME280;10167;42.852;23.042;2023-02-14T08:41:32;96135.78;;;2.93;100.00
20013;BME280;10167;42.852;23.042;2023-02-14T08:44:01;96136.78;;;2.92;100.00
20013;BME280;10167;42.852;23.042;2023-02-14T08:46:29;96130.75;;;3.08;100.00
20013;BME280;10167;42.852;23.042;2023-02-14T08:48:58;96133.22;;;3.10;100.00
20013;BME280;10167;42.852;23.042;2023-02-14T08:51:27;96123.91;;;3.23;100.00
20013;BME280;10167;42.852;23.042;2023-02-14T08:53:56;96129.97;;;3.32;100.00
20013;BME280;10167;42.852;23.042;2023-02-14T08:56:26;96130.63;;;3.34;100.00
20013;BME280;10167;42.852;23.042;2023-02-14T08:58:55;96136.69;;;3.35;100.00
20013;BME280;10167;42.852;23.042;2023-02-14T09:01:23;96126.84;;;3.20;100.00
20013;BME280;10167;42.852;23.042;2023-02-14T09:03:52;96123.91;;;3.23;100.00
20013;BME280;10167;42.852;23.042;2023-02-14T09:06:21;96123.91;;;3.23;100.00
20013;BME280;10167;42.852;23.042;2023-02-14T09:08:50;96129.31;;;3.30;100.00
20013;BME280;10167;42.852;23.042;2023-02-14T09:11:21;96128.84;;;3.26;100.00
20013;BME280;10167;42.852;23.042;2023-02-14T09:13:52;96128.03;;;3.26;100.00
20013;BME280;10167;42.852;23.042;2023-02-14T09:16:21;96126.22;;;3.35;100.00
20013;BME280;10167;42.852;23.042;2023-02-14T09:18:53;96127.22;;;3.34;100.00
20013;BME280;10167;42.852;23.042;2023-02-14T09:21:23;96123.09;;;3.23;100.00
20013;BME280;10167;42.852;23.042;2023-02-14T09:23:53;96123.09;;;3.31;100.00
20013;BME280;10167;42.852;23.042;2023-02-14T09:26:22;96121.97;;;3.25;100.00
20013;BME280;10167;42.852;23.042;2023-02-14T09:28:50;96128.50;;;3.29;100.00
20013;BME280;10167;42.852;23.042;2023-02-14T09:31:24;96119.66;;;3.22;100.00
20013;BME280;10167;42.852;23.042;2023-02-14T09:33:52;96110.53;;;3.26;100.00
20013;BME280;10167;42.852;23.042;2023-02-14T09:36:23;96109.34;;;3.21;100.00
20013;BME280;10167;42.852;23.042;2023-02-14T09:38:51;96107.19;;;3.08;100.00
20013;BME280;10167;42.852;23.042;2023-02-14T09:41:32;96121.41;;;3.06;100.00
20013;BME280;10167;42.852;23.042;2023-02-14T09:44:07;96121.28;;;3.15;100.00
20013;BME280;10167;42.852;23.042;2023-02-14T09:46:41;96119.81;;;3.21;100.00
20013;BME280;10167;42.852;23.042;2023-02-14T09:49:13;96115.91;;;3.25;100.00
20013;BME280;10167;42.852;23.042;2023-02-14T09:51:44;96119.00;;;3.28;100.00
20013;BME280;10167;42.852;23.042;2023-02-14T09:54:13;96101.97;;;3.16;100.00
20013;BME280;10167;42.852;23.042;2023-02-14T09:56:46;96108.22;;;3.15;100.00
20013;BME280;10167;42.852;23.042;2023-02-14T09:59:21;96106.72;;;3.13;100.00
20013;BME280;10167;42.852;23.042;2023-02-14T10:01:55;96097.91;;;3.22;100.00
20013;BME280;10167;42.852;23.042;2023-02-14T10:04:27;96097.09;;;3.21;100.00
20013;BME280;10167;42.852;23.042;2023-02-14T10:06:59;96094.47;;;3.21;100.00
20013;BME280;10167;42.852;23.042;2023-02-14T10:09:40;96093.47;;;3.22;100.00
20013;BME280;10167;42.852;23.042;2023-02-14T10:12:14;96088.25;;;3.31;100.00
20013;BME280;10167;42.852;23.042;2023-02-14T10:14:44;96084.66;;;3.40;100.00
20013;BME280;10167;42.852;23.042;2023-02-14T10:17:16;96091.03;;;3.29;100.00
20013;BME280;10167;42.852;23.042;2023-02-14T10:19:48;96094.81;;;3.26;100.00
20013;BME280;10167;42.852;23.042;2023-02-14T10:22:22;96087.44;;;3.22;100.00
20013;BME280;10167;42.852;23.042;2023-02-14T10:24:53;96086.63;;;3.29;100.00
20013;BME280;10167;42.852;23.042;2023-02-14T10:27:29;96086.13;;;3.26;100.00
20013;BME280;10167;42.852;23.042;2023-02-14T10:29:58;96083.53;;;3.34;100.00
20013;BME280;10167;42.852;23.042;2023-02-14T10:32:33;96082.03;;;3.32;100.00
20013;BME280;10167;42.852;23.042;2023-02-14T10:35:06;96089.72;;;3.25;100.00
20013;BME280;10167;42.852;23.042;2023-02-14T10:37:43;96088.75;;;3.34;100.00
20013;BME280;10167;42.852;23.042;2023-02-14T10:40:23;96089.88;;;3.23;100.00
20013;BME280;10167;42.852;23.042;2023-02-14T10:42:57;96098.72;;;3.31;100.00
20013;BME280;10167;42.852;23.042;2023-02-14T10:45:29;96089.06;;;3.23;100.00
20013;BME280;10167;42.852;23.042;2023-02-14T10:48:07;96082.34;;;3.28;100.00
20013;BME280;10167;42.852;23.042;2023-02-14T10:50:42;96076.47;;;3.35;100.00
20013;BME280;10167;42.852;23.042;2023-02-14T10:53:15;96081.72;;;3.26;100.00
20013;BME280;10167;42.852;23.042;2023-02-14T10:55:48;96072.38;;;3.24;100.00
20013;BME280;10167;42.852;23.042;2023-02-14T10:58:18;96077.94;;;3.21;100.00
20013;BME280;10167;42.852;23.042;2023-02-14T11:00:53;96086.63;;;3.29;100.00
20013;BME280;10167;42.852;23.042;2023-02-14T11:03:25;96078.28;;;3.34;100.00
20013;BME280;10167;42.852;23.042;2023-02-14T11:05:55;96075.97;;;3.31;100.00
20013;BME280;10167;42.852;23.042;2023-02-14T11:08:24;96067.66;;;3.44;100.00
20013;BME280;10167;42.852;23.042;2023-02-14T11:10:54;96061.41;;;3.53;100.00
20013;BME280;10167;42.852;23.042;2023-02-14T11:13:29;96054.06;;;3.56;100.00
20013;BME280;10167;42.852;23.042;2023-02-14T11:15:59;96045.69;;;3.53;100.00
20013;BME280;10167;42.852;23.042;2023-02-14T11:18:31;96048.66;;;3.58;100.00
20013;BME280;10167;42.852;23.042;2023-02-14T11:21:07;96045.88;;;3.59;100.00
20013;BME280;10167;42.852;23.042;2023-02-14T11:23:37;96053.03;;;3.74;100.00
20013;BME280;10167;42.852;23.042;2023-02-14T11:26:10;96049.78;;;3.80;100.00
20013;BME280;10167;42.852;23.042;2023-02-14T11:28:45;96052.72;;;3.77;100.00
20013;BME280;10167;42.852;23.042;2023-02-14T11:31:23;96051.44;;;3.64;100.00
20013;BME280;10167;42.852;23.042;2023-02-14T11:33:53;96053.38;;;3.79;100.00
20013;BME280;10167;42.852;23.042;2023-02-14T11:36:22;96041.75;;;3.65;100.00
20013;BME280;10167;42.852;23.042;2023-02-14T11:38:55;96051.94;;;3.60;100.00
20013;BME280;10167;42.852;23.042;2023-02-14T11:41:24;96046.50;;;3.61;100.00
20013;BME280;10167;42.852;23.042;2023-02-14T11:43:53;96045.53;;;3.79;100.00
20013;BME280;10167;42.852;23.042;2023-02-14T11:46:37;96035.84;;;3.87;100.00
20013;BME280;10167;42.852;23.042;2023-02-14T11:49:27;96035.97;;;4.02;100.00
20013;BME280;10167;42.852;23.042;2023-02-14T11:51:57;96018.56;;;4.09;100.00
20013;BME280;10167;42.852;23.042;2023-02-14T11:54:27;96011.50;;;4.18;100.00
20013;BME280;10167;42.852;23.042;2023-02-14T11:57:00;96000.81;;;4.27;100.00
20013;BME280;10167;42.852;23.042;2023-02-14T11:59:31;96017.16;;;4.37;100.00
20013;BME280;10167;42.852;23.042;2023-02-14T12:02:01;96012.56;;;4.40;100.00
20013;BME280;10167;42.852;23.042;2023-02-14T12:04:34;96009.09;;;4.47;100.00
20013;BME280;10167;42.852;23.042;2023-02-14T12:07:17;96005.44;;;4.56;100.00
20013;BME280;10167;42.852;23.042;2023-02-14T12:09:47;96017.25;;;4.52;100.00
20013;BME280;10167;42.852;23.042;2023-02-14T12:12:18;96016.31;;;4.45;100.00
20013;BME280;10167;42.852;23.042;2023-02-14T12:14:47;96015.63;;;4.51;100.00
20013;BME280;10167;42.852;23.042;2023-02-14T12:17:19;95995.25;;;4.61;100.00
20013;BME280;10167;42.852;23.042;2023-02-14T12:19:54;95987.63;;;4.44;100.00
20013;BME280;10167;42.852;23.042;2023-02-14T12:22:27;95985.53;;;4.39;100.00
20013;BME280;10167;42.852;23.042;2023-02-14T12:24:58;95984.84;;;4.45;100.00
20013;BME280;10167;42.852;23.042;2023-02-14T12:27:30;95983.03;;;4.46;100.00
20013;BME280;10167;42.852;23.042;2023-02-14T12:30:03;95977.72;;;4.54;100.00
20013;BME280;10167;42.852;23.042;2023-02-14T12:32:34;95985.16;;;4.42;100.00
20013;BME280;10167;42.852;23.042;2023-02-14T12:35:12;95989.41;;;4.51;100.00
20013;BME280;10167;42.852;23.042;2023-02-14T12:37:45;95986.47;;;4.46;100.00
20013;BME280;10167;42.852;23.042;2023-02-14T12:40:32;95981.72;;;4.42;100.00
20013;BME280;10167;42.852;23.042;2023-02-14T12:46:02;95961.66;;;4.26;100.00
20013;BME280;10167;42.852;23.042;2023-02-14T12:48:37;95976.97;;;4.14;100.00
20013;BME280;10167;42.852;23.042;2023-02-14T12:51:16;95980.03;;;4.18;100.00
20013;BME280;10167;42.852;23.042;2023-02-14T12:53:52;95970.34;;;4.26;100.00
20013;BME280;10167;42.852;23.042;2023-02-14T12:56:26;95974.06;;;4.32;100.00
20013;BME280;10167;42.852;23.042;2023-02-14T12:58:57;95973.63;;;4.28;100.00
20013;BME280;10167;42.852;23.042;2023-02-14T13:07:13;95971.59;;;4.38;100.00
20013;BME280;10167;42.852;23.042;2023-02-14T13:09:46;95978.81;;;4.36;100.00
20013;BME280;10167;42.852;23.042;2023-02-14T13:12:22;95985.38;;;4.32;100.00
20013;BME280;10167;42.852;23.042;2023-02-14T13:14:57;95985.25;;;4.26;100.00
20013;BME280;10167;42.852;23.042;2023-02-14T13:17:30;95981.50;;;4.28;100.00
20013;BME280;10167;42.852;23.042;2023-02-14T13:20:04;95986.25;;;4.25;100.00
20013;BME280;10167;42.852;23.042;2023-02-14T13:22:40;95978.88;;;4.28;100.00
20013;BME280;10167;42.852;23.042;2023-02-14T13:25:23;95982.81;;;4.24;100.00
20013;BME280;10167;42.852;23.042;2023-02-14T13:27:58;95966.75;;;4.27;100.00
20013;BME280;10167;42.852;23.042;2023-02-14T13:30:28;95962.59;;;4.33;100.00
20013;BME280;10167;42.852;23.042;2023-02-14T13:33:00;95961.63;;;4.34;100.00